Time;durP1;ratioP1;P1;durP2;ratioP2;P2;SDS_P1;SDS_P2;PMS_P1;PMS_P2;Temp;Humidity;BMP_temperature;BMP_pressure;BME280_temperature;BME280_humidity;BME280_pressure;Samples;Min_cycle;Max_cycle;Signal;HPM_P1;HPM_P2
2023/05/10 00:01:09;;;;;;;;;;;;;;;-142.75;100.00;76145.13;4986083;28;19920;-65
2023/05/10 00:03:35;;;;;;;;;;;;;;;-142.75;100.00;76149.06;4985274;28;19917;-66
2023/05/10 00:06:00;;;;;;;;;;;;;;;-142.75;100.00;76139.22;4986275;28;19964;-66
2023/05/10 00:08:25;;;;;;;;;;;;;;;-142.75;100.00;76135.28;4985974;28;19981;-66
2023/05/10 00:10:52;;;;;;;;;;;;;;;-142.75;100.00;76143.16;4986541;28;19925;-66
2023/05/10 00:13:17;;;;;;;;;;;;;;;-142.75;100.00;76145.13;4986460;28;19917;-66
2023/05/10 00:15:42;;;;;;;;;;;;;;;-142.75;100.00;76147.09;4986018;28;20093;-65
2023/05/10 00:18:07;;;;;;;;;;;;;;;-142.75;100.00;76160.88;4986632;28;19921;-66
2023/05/10 00:20:33;;;;;;;;;;;;;;;-142.75;100.00;76156.94;4987043;28;19956;-66
2023/05/10 00:22:58;;;;;;;;;;;;;;;-142.75;100.00;76168.75;4986392;28;20012;-66
2023/05/10 00:25:23;;;;;;;;;;;;;;;-142.75;100.00;76156.94;4986131;28;20000;-66
2023/05/10 00:27:49;;;;;;;;;;;;;;;-142.75;100.00;76143.16;4985471;28;19913;-67
2023/05/10 00:30:14;;;;;;;;;;;;;;;-142.75;100.00;76127.41;4986217;28;19921;-66
2023/05/10 00:32:40;;;;;;;;;;;;;;;-142.75;100.00;76123.47;4984865;28;19972;-66
2023/05/10 00:35:05;;;;;;;;;;;;;;;-142.75;100.00;76113.63;4985880;28;19914;-65
2023/05/10 00:37:30;;;;;;;;;;;;;;;-142.75;100.00;76121.50;4986037;28;20322;-67
2023/05/10 00:39:55;;;;;;;;;;;;;;;-142.75;100.00;76117.56;4986137;28;20000;-66
2023/05/10 00:42:21;;;;;;;;;;;;;;;-142.75;100.00;76117.56;4986459;28;19914;-66
2023/05/10 00:44:46;;;;;;;;;;;;;;;-142.75;100.00;76123.47;4996904;28;19917;-66
2023/05/10 00:47:12;;;;;;;;;;;;;;;-142.75;100.00;76109.69;5005397;28;20394;-66
2023/05/10 00:49:37;;;;;;;;;;;;;;;-142.75;100.00;76109.69;4988009;28;19920;-66
2023/05/10 00:52:02;;;;;;;;;;;;;;;-142.75;100.00;76111.66;5006060;28;19960;-66
2023/05/10 00:54:28;;;;;;;;;;;;;;;-142.75;100.00;76123.47;5005196;28;19914;-66
2023/05/10 00:56:53;;;;;;;;;;;;;;;-142.75;100.00;76133.31;5005399;28;19917;-66
2023/05/10 00:59:19;;;;;;;;;;;;;;;-142.75;100.00;76139.22;5005618;28;20621;-66
2023/05/10 01:01:47;;;;;;;;;;;;;;;-142.75;100.00;76160.88;5020512;22;19901;-68
2023/05/10 01:04:13;;;;;;;;;;;;;;;-142.75;100.00;76151.03;4978181;28;20514;-68
2023/05/10 01:06:39;;;;;;;;;;;;;;;-142.75;100.00;76141.19;4982367;28;19922;-68
2023/05/10 01:09:06;;;;;;;;;;;;;;;-142.75;100.00;76145.13;5000740;28;20129;-68
2023/05/10 01:11:31;;;;;;;;;;;;;;;-142.75;100.00;76141.19;4981543;28;19918;-68
2023/05/10 01:13:57;;;;;;;;;;;;;;;-142.75;100.00;76153.00;4985683;28;19983;-69
2023/05/10 01:16:23;;;;;;;;;;;;;;;-142.75;100.00;76151.03;4988064;28;19918;-68
2023/05/10 01:18:49;;;;;;;;;;;;;;;-142.75;100.00;76149.06;5004482;28;19940;-68
2023/05/10 01:21:18;;;;;;;;;;;;;;;-142.75;100.00;76160.88;4990007;28;20556;-67
2023/05/10 01:24:03;;;;;;;;;;;;;;;-142.75;100.00;76145.13;4989423;28;19920;-68
2023/05/10 01:26:37;;;;;;;;;;;;;;;-142.75;100.00;76133.31;4988943;28;20445;-69
2023/05/10 01:29:18;;;;;;;;;;;;;;;-142.75;100.00;76141.19;4989342;28;19914;-68
2023/05/10 01:32:02;;;;;;;;;;;;;;;-142.75;100.00;76156.94;4986696;28;20345;-68
2023/05/10 01:34:32;;;;;;;;;;;;;;;-142.75;100.00;76149.06;4988000;28;20376;-68
2023/05/10 01:37:02;;;;;;;;;;;;;;;-142.75;100.00;76164.81;4987716;28;19921;-68
2023/05/10 01:39:33;;;;;;;;;;;;;;;-142.75;100.00;76143.16;4988975;28;20024;-68
2023/05/10 01:42:02;;;;;;;;;;;;;;;-142.75;100.00;76147.09;4988859;28;19967;-67
2023/05/10 01:44:42;;;;;;;;;;;;;;;-142.75;100.00;76160.88;4988701;28;20350;-68
2023/05/10 01:47:15;;;;;;;;;;;;;;;-142.75;100.00;76160.88;5001136;28;19929;-68
2023/05/10 01:49:51;;;;;;;;;;;;;;;-142.75;100.00;76158.91;4988735;28;19968;-68
2023/05/10 01:52:21;;;;;;;;;;;;;;;-142.75;100.00;76143.16;4989321;28;19917;-68
2023/05/10 01:54:53;;;;;;;;;;;;;;;-142.75;100.00;76137.25;4988364;28;19997;-66
2023/05/10 01:57:20;;;;;;;;;;;;;;;-142.75;100.00;76133.31;4988746;28;19935;-69
2023/05/10 01:59:49;;;;;;;;;;;;;;;-142.75;100.00;76141.19;4988502;28;19971;-68
2023/05/10 02:02:15;;;;;;;;;;;;;;;-142.75;100.00;76145.13;5003366;28;19918;-68
2023/05/10 02:04:41;;;;;;;;;;;;;;;-142.75;100.00;76151.03;4988511;28;19976;-67
2023/05/10 02:07:08;;;;;;;;;;;;;;;-142.75;100.00;76135.28;4988631;28;19913;-68
2023/05/10 02:09:34;;;;;;;;;;;;;;;-142.75;100.00;76137.25;4988253;28;19914;-67
2023/05/10 02:12:02;;;;;;;;;;;;;;;-142.75;100.00;76137.25;4988287;28;20003;-69
2023/05/10 02:14:28;;;;;;;;;;;;;;;-142.75;100.00;76127.41;4987894;28;19921;-68
2023/05/10 02:16:55;;;;;;;;;;;;;;;-142.75;100.00;76131.34;4985729;28;19957;-68
2023/05/10 02:19:21;;;;;;;;;;;;;;;-142.75;100.00;76131.34;5003273;28;19913;-68
2023/05/10 02:21:47;;;;;;;;;;;;;;;-142.75;100.00;76119.53;5003377;28;19913;-67
2023/05/10 02:24:14;;;;;;;;;;;;;;;-142.75;100.00;76143.16;4988065;28;20009;-68
2023/05/10 02:26:40;;;;;;;;;;;;;;;-142.75;100.00;76129.38;4987183;28;19921;-68
2023/05/10 02:29:06;;;;;;;;;;;;;;;-142.75;100.00;76125.44;4987781;28;20294;-67
2023/05/10 02:31:33;;;;;;;;;;;;;;;-142.75;100.00;76129.38;4988184;28;19960;-68
2023/05/10 02:33:59;;;;;;;;;;;;;;;-142.75;100.00;76133.31;4987969;28;19925;-68
2023/05/10 02:36:27;;;;;;;;;;;;;;;-142.75;100.00;76125.44;4988006;28;19914;-68
2023/05/10 02:38:53;;;;;;;;;;;;;;;-142.75;100.00;76129.38;4988306;28;19921;-69
2023/05/10 02:41:19;;;;;;;;;;;;;;;-142.75;100.00;76121.50;4988042;28;20015;-68
2023/05/10 02:43:45;;;;;;;;;;;;;;;-142.75;100.00;76115.59;4986257;28;19913;-68
2023/05/10 02:46:10;;;;;;;;;;;;;;;-142.75;100.00;76117.56;4987779;28;20391;-68
2023/05/10 02:48:35;;;;;;;;;;;;;;;-142.75;100.00;76125.44;4987775;28;19981;-68
2023/05/10 02:51:04;;;;;;;;;;;;;;;-142.75;100.00;76117.56;4988339;28;19922;-68
2023/05/10 02:53:33;;;;;;;;;;;;;;;-142.75;100.00;76123.47;4988136;28;20028;-68
2023/05/10 02:56:04;;;;;;;;;;;;;;;-142.75;100.00;76129.38;4988067;28;19918;-68
2023/05/10 02:58:29;;;;;;;;;;;;;;;-142.75;100.00;76121.50;4987903;28;20379;-66
2023/05/10 03:00:54;;;;;;;;;;;;;;;-142.75;100.00;76125.44;4988287;28;19914;-67
2023/05/10 03:03:20;;;;;;;;;;;;;;;-142.75;100.00;76129.38;4987906;28;19921;-68
2023/05/10 03:05:46;;;;;;;;;;;;;;;-142.75;100.00;76119.53;4987813;28;19976;-68
2023/05/10 03:08:11;;;;;;;;;;;;;;;-142.75;100.00;76139.22;5003237;28;19918;-67
2023/05/10 03:10:41;;;;;;;;;;;;;;;-142.75;100.00;76125.44;4987633;28;19920;-68
2023/05/10 03:13:12;;;;;;;;;;;;;;;-142.75;100.00;76121.50;4987956;28;19924;-69
2023/05/10 03:15:42;;;;;;;;;;;;;;;-142.75;100.00;76129.38;4987812;28;19921;-68
2023/05/10 03:18:10;;;;;;;;;;;;;;;-142.75;100.00;76135.28;5002778;28;20414;-68
2023/05/10 03:20:38;;;;;;;;;;;;;;;-142.75;100.00;76147.09;4988054;28;19920;-68
2023/05/10 03:23:15;;;;;;;;;;;;;;;-142.75;100.00;76145.13;4987582;28;19975;-68
2023/05/10 03:25:41;;;;;;;;;;;;;;;-142.75;100.00;76135.28;4987231;28;19919;-68
2023/05/10 03:28:06;;;;;;;;;;;;;;;-142.75;100.00;76145.13;4987507;28;20000;-68
2023/05/10 03:30:33;;;;;;;;;;;;;;;-142.75;100.00;76158.91;4987440;28;19925;-66
2023/05/10 03:33:03;;;;;;;;;;;;;;;-142.75;100.00;76149.06;4987457;28;19917;-68
2023/05/10 03:35:28;;;;;;;;;;;;;;;-142.75;100.00;76147.09;4987132;28;19914;-68
2023/05/10 03:37:54;;;;;;;;;;;;;;;-142.75;100.00;76156.94;4987362;28;19913;-67
2023/05/10 03:40:19;;;;;;;;;;;;;;;-142.75;100.00;76143.16;4987678;28;20012;-68
2023/05/10 03:42:44;;;;;;;;;;;;;;;-142.75;100.00;76143.16;4987555;28;19913;-68
2023/05/10 03:45:09;;;;;;;;;;;;;;;-142.75;100.00;76156.94;4987378;28;19918;-68
2023/05/10 03:47:35;;;;;;;;;;;;;;;-142.75;100.00;76166.78;4986648;28;19913;-67
2023/05/10 03:50:00;;;;;;;;;;;;;;;-142.75;100.00;76151.03;4987718;28;19920;-69
2023/05/10 03:52:25;;;;;;;;;;;;;;;-142.75;100.00;76154.97;4987895;28;19924;-68
2023/05/10 03:54:50;;;;;;;;;;;;;;;-142.75;100.00;76154.97;5002782;28;19964;-68
2023/05/10 03:57:15;;;;;;;;;;;;;;;-142.75;100.00;76160.88;4987487;28;19914;-68
2023/05/10 03:59:41;;;;;;;;;;;;;;;-142.75;100.00;76168.75;4987248;28;19924;-68
2023/05/10 04:02:06;;;;;;;;;;;;;;;-142.75;100.00;76176.63;4986825;28;19957;-68
2023/05/10 04:04:31;;;;;;;;;;;;;;;-142.75;100.00;76160.88;4986761;28;19956;-67
2023/05/10 04:06:56;;;;;;;;;;;;;;;-142.75;100.00;76162.84;4986894;28;19954;-68
2023/05/10 04:09:22;;;;;;;;;;;;;;;-142.75;100.00;76168.75;4985392;28;19918;-67
2023/05/10 04:11:47;;;;;;;;;;;;;;;-142.75;100.00;76188.44;4986745;28;19918;-68
2023/05/10 04:14:12;;;;;;;;;;;;;;;-142.75;100.00;76164.81;4987061;28;20072;-68
2023/05/10 04:16:37;;;;;;;;;;;;;;;-142.75;100.00;76160.88;4986785;28;19914;-69
2023/05/10 04:19:03;;;;;;;;;;;;;;;-142.75;100.00;76162.84;5002097;28;20370;-67
2023/05/10 04:21:28;;;;;;;;;;;;;;;-142.75;100.00;76168.75;5002593;28;19913;-68
2023/05/10 04:23:54;;;;;;;;;;;;;;;-142.75;100.00;76172.69;4987117;28;19923;-66
2023/05/10 04:26:20;;;;;;;;;;;;;;;-142.75;100.00;76176.63;4985432;28;20345;-68
2023/05/10 04:28:45;;;;;;;;;;;;;;;-142.75;100.00;76172.69;4986941;28;19914;-68
2023/05/10 04:31:10;;;;;;;;;;;;;;;-142.75;100.00;76192.38;5001994;28;19918;-68
2023/05/10 04:33:35;;;;;;;;;;;;;;;-142.75;100.00;76196.31;4986696;28;19914;-68
2023/05/10 04:36:01;;;;;;;;;;;;;;;-142.75;100.00;76188.44;4986531;28;19945;-68
2023/05/10 04:38:26;;;;;;;;;;;;;;;-142.75;100.00;76194.34;4984044;28;19924;-69
2023/05/10 04:40:52;;;;;;;;;;;;;;;-142.75;100.00;76208.09;5001979;28;19918;-68
2023/05/10 04:43:17;;;;;;;;;;;;;;;-142.75;100.00;76198.28;4986706;28;20363;-69
2023/05/10 04:45:42;;;;;;;;;;;;;;;-142.75;100.00;76202.19;4981720;28;20243;-69
2023/05/10 04:48:07;;;;;;;;;;;;;;;-142.75;100.00;76215.97;4986692;28;19929;-68
2023/05/10 04:50:33;;;;;;;;;;;;;;;-142.75;100.00;76214.00;4988324;28;19913;-68
2023/05/10 04:52:58;;;;;;;;;;;;;;;-142.75;100.00;76231.72;4991082;28;20437;-68
2023/05/10 04:55:23;;;;;;;;;;;;;;;-142.75;100.00;76217.94;4990471;28;19913;-66
2023/05/10 04:57:48;;;;;;;;;;;;;;;-142.75;100.00;76208.09;4991045;28;19921;-67
2023/05/10 05:00:14;;;;;;;;;;;;;;;-142.75;100.00;76214.00;4989988;28;19914;-69
2023/05/10 05:02:42;;;;;;;;;;;;;;;-142.75;100.00;76227.78;4989979;28;19914;-68
2023/05/10 05:05:07;;;;;;;;;;;;;;;-142.75;100.00;76243.53;4989983;28;20346;-68
2023/05/10 05:07:32;;;;;;;;;;;;;;;-142.75;100.00;76239.59;4990195;28;19914;-68
2023/05/10 05:09:57;;;;;;;;;;;;;;;-142.75;100.00;76229.75;4990247;28;19920;-68
2023/05/10 05:12:25;;;;;;;;;;;;;;;-142.75;100.00;76233.69;4990447;28;19964;-68
2023/05/10 05:14:51;;;;;;;;;;;;;;;-142.75;100.00;76235.66;4990751;28;19914;-68
2023/05/10 05:17:16;;;;;;;;;;;;;;;-142.75;100.00;76227.78;4990818;28;19914;-68
2023/05/10 05:19:41;;;;;;;;;;;;;;;-142.75;100.00;76235.66;4990549;28;19940;-68
2023/05/10 05:22:06;;;;;;;;;;;;;;;-142.75;100.00;76261.25;4990932;28;19923;-68
2023/05/10 05:24:36;;;;;;;;;;;;;;;-142.75;100.00;76259.28;4990519;28;20583;-68
2023/05/10 05:27:01;;;;;;;;;;;;;;;-142.75;100.00;76275.03;4990349;28;19913;-67
2023/05/10 05:29:26;;;;;;;;;;;;;;;-142.75;100.00;76300.63;4990700;28;20410;-68
2023/05/10 05:31:51;;;;;;;;;;;;;;;-142.75;100.00;76286.84;5005869;28;20299;-68
2023/05/10 05:34:17;;;;;;;;;;;;;;;-142.75;100.00;76292.75;4990241;28;19913;-68
2023/05/10 05:36:42;;;;;;;;;;;;;;;-142.75;100.00;76290.78;4990132;28;20151;-68
2023/05/10 05:39:07;;;;;;;;;;;;;;;-142.75;100.00;76286.84;4990277;28;19918;-69
2023/05/10 05:41:32;;;;;;;;;;;;;;;-142.75;100.00;76277.00;5005227;28;19913;-68
2023/05/10 05:43:58;;;;;;;;;;;;;;;-142.75;100.00;76275.03;4988996;28;19914;-68
2023/05/10 05:46:23;;;;;;;;;;;;;;;-142.75;100.00;76284.88;4990041;28;19914;-68
2023/05/10 05:48:48;;;;;;;;;;;;;;;-142.75;100.00;76278.97;4989073;28;19914;-67
2023/05/10 05:51:13;;;;;;;;;;;;;;;-142.75;100.00;76275.03;4990062;28;19953;-68
2023/05/10 05:53:39;;;;;;;;;;;;;;;-142.75;100.00;76267.16;4989882;28;20446;-68
2023/05/10 05:56:04;;;;;;;;;;;;;;;-142.75;100.00;76278.97;4990278;28;20330;-68
2023/05/10 05:58:29;;;;;;;;;;;;;;;-142.75;100.00;76282.91;4990144;28;19913;-68
2023/05/10 06:00:54;;;;;;;;;;;;;;;-142.75;100.00;76286.84;4989429;28;19936;-67
2023/05/10 06:03:20;;;;;;;;;;;;;;;-142.75;100.00;76277.00;5004024;28;20403;-67
2023/05/10 06:05:45;;;;;;;;;;;;;;;-142.75;100.00;76278.97;4989677;28;19921;-68
2023/05/10 06:08:10;;;;;;;;;;;;;;;-142.75;100.00;76275.03;4989837;28;19942;-68
2023/05/10 06:10:36;;;;;;;;;;;;;;;-142.75;100.00;76286.84;4988567;28;19913;-68
2023/05/10 06:13:01;;;;;;;;;;;;;;;-142.75;100.00;76277.00;4988726;28;19925;-68
2023/05/10 06:15:26;;;;;;;;;;;;;;;-142.75;100.00;76267.16;4987688;28;20367;-67
2023/05/10 06:17:52;;;;;;;;;;;;;;;-142.75;100.00;76255.34;4989346;28;19918;-67
2023/05/10 06:20:17;;;;;;;;;;;;;;;-142.75;100.00;76267.16;4988328;28;19918;-69
2023/05/10 06:22:42;;;;;;;;;;;;;;;-142.75;100.00;76277.00;4989659;28;20511;-68
2023/05/10 06:25:08;;;;;;;;;;;;;;;-142.75;100.00;76263.22;4988049;28;19913;-67
2023/05/10 06:27:33;;;;;;;;;;;;;;;-142.75;100.00;76275.03;4989355;28;20390;-68
2023/05/10 06:29:58;;;;;;;;;;;;;;;-142.75;100.00;76273.06;4988135;28;20298;-67
2023/05/10 06:32:23;;;;;;;;;;;;;;;-142.75;100.00;76263.22;4989054;28;19918;-68
2023/05/10 06:34:49;;;;;;;;;;;;;;;-142.75;100.00;76255.34;4989313;28;20020;-68
2023/05/10 06:37:14;;;;;;;;;;;;;;;-142.75;100.00;76255.34;4989436;28;19914;-68
2023/05/10 06:39:39;;;;;;;;;;;;;;;-142.75;100.00;76251.41;4989336;28;19961;-69
2023/05/10 06:42:05;;;;;;;;;;;;;;;-142.75;100.00;76235.66;4987749;28;19918;-68
2023/05/10 06:44:30;;;;;;;;;;;;;;;-142.75;100.00;76219.91;4988542;28;19914;-68
2023/05/10 06:46:55;;;;;;;;;;;;;;;-142.75;100.00;76210.06;4986461;28;19917;-67
2023/05/10 06:49:21;;;;;;;;;;;;;;;-142.75;100.00;76206.13;4988009;28;19917;-67
2023/05/10 06:51:46;;;;;;;;;;;;;;;-142.75;100.00;76194.34;4988429;28;20008;-68
2023/05/10 06:54:11;;;;;;;;;;;;;;;-142.75;100.00;76204.16;4988053;28;20303;-66
2023/05/10 06:56:36;;;;;;;;;;;;;;;-142.75;100.00;76208.09;4986558;28;20351;-68
2023/05/10 06:59:02;;;;;;;;;;;;;;;-142.75;100.00;76188.44;4986292;28;20284;-66
2023/05/10 07:01:27;;;;;;;;;;;;;;;-142.75;100.00;76196.31;4989696;28;19914;-66
2023/05/10 07:03:56;;;;;;;;;;;;;;;-142.75;100.00;76212.03;4990554;28;19921;-65
2023/05/10 07:06:21;;;;;;;;;;;;;;;-142.75;100.00;76217.94;5000950;28;20441;-67
2023/05/10 07:08:47;;;;;;;;;;;;;;;-142.75;100.00;76212.03;4988236;28;19913;-68
2023/05/10 07:11:12;;;;;;;;;;;;;;;-142.75;100.00;76208.09;4988679;28;19918;-67
2023/05/10 07:13:38;;;;;;;;;;;;;;;-142.75;100.00;76210.06;4982333;28;19975;-67
2023/05/10 07:16:06;;;;;;;;;;;;;;;-142.75;100.00;76219.91;4993782;28;20005;-67
2023/05/10 07:18:31;;;;;;;;;;;;;;;-142.75;100.00;76217.94;5014009;23;19925;-66
2023/05/10 07:20:56;;;;;;;;;;;;;;;-142.75;100.00;76219.91;5011326;28;19944;-66
2023/05/10 07:23:22;;;;;;;;;;;;;;;-142.75;100.00;76227.78;5004872;28;19940;-66
2023/05/10 07:25:47;;;;;;;;;;;;;;;-142.75;100.00;76223.84;5019334;28;19983;-66
2023/05/10 07:28:13;;;;;;;;;;;;;;;-142.75;100.00;76217.94;5007125;28;19913;-66
2023/05/10 07:30:38;;;;;;;;;;;;;;;-142.75;100.00;76223.84;5021372;28;19925;-66
2023/05/10 07:33:03;;;;;;;;;;;;;;;-142.75;100.00;76208.09;4997666;28;19913;-66
2023/05/10 07:35:29;;;;;;;;;;;;;;;-142.75;100.00;76231.72;5002796;28;19920;-66
2023/05/10 07:37:54;;;;;;;;;;;;;;;-142.75;100.00;76231.72;5006846;28;19913;-66
2023/05/10 07:40:19;;;;;;;;;;;;;;;-142.75;100.00;76231.72;5007235;28;19932;-66
2023/05/10 07:42:45;;;;;;;;;;;;;;;-142.75;100.00;76235.66;5021845;28;20016;-64
2023/05/10 07:45:10;;;;;;;;;;;;;;;-142.75;100.00;76229.75;5007211;28;19968;-66
2023/05/10 07:47:35;;;;;;;;;;;;;;;-142.75;100.00;76233.69;5007451;28;19914;-66
2023/05/10 07:50:01;;;;;;;;;;;;;;;-142.75;100.00;76223.84;5003329;28;20653;-66
2023/05/10 07:52:26;;;;;;;;;;;;;;;-142.75;100.00;76221.88;5007419;28;19971;-65
2023/05/10 07:54:51;;;;;;;;;;;;;;;-142.75;100.00;76231.72;5007494;28;19914;-66
2023/05/10 07:57:17;;;;;;;;;;;;;;;-142.75;100.00;76239.59;5007349;28;19924;-66
2023/05/10 07:59:43;;;;;;;;;;;;;;;-142.75;100.00;76237.63;5005813;28;19913;-66
2023/05/10 08:02:08;;;;;;;;;;;;;;;-142.75;100.00;76235.66;5007476;28;19976;-66
2023/05/10 08:04:33;;;;;;;;;;;;;;;-142.75;100.00;76243.53;5007346;28;19913;-67
2023/05/10 08:06:59;;;;;;;;;;;;;;;-142.75;100.00;76241.56;5007209;28;19913;-66
2023/05/10 08:09:24;;;;;;;;;;;;;;;-142.75;100.00;76239.59;5004890;28;19913;-64
2023/05/10 08:11:50;;;;;;;;;;;;;;;-142.75;100.00;76247.47;5000339;28;19999;-66
2023/05/10 08:14:15;;;;;;;;;;;;;;;-142.75;100.00;76243.53;5006698;28;19919;-66
2023/05/10 08:16:41;;;;;;;;;;;;;;;-142.75;100.00;76241.56;5005930;28;19917;-67
2023/05/10 08:19:06;;;;;;;;;;;;;;;-142.75;100.00;76239.59;4994849;28;19927;-64
2023/05/10 08:21:31;;;;;;;;;;;;;;;-142.75;100.00;76229.75;5006286;28;19920;-65
2023/05/10 08:23:57;;;;;;;;;;;;;;;-142.75;100.00;76219.91;5003649;28;20508;-67
2023/05/10 08:26:22;;;;;;;;;;;;;;;-142.75;100.00;76204.16;5008507;28;19920;-66
2023/05/10 08:28:48;;;;;;;;;;;;;;;-142.75;100.00;76214.00;5007520;28;19924;-67
2023/05/10 08:31:13;;;;;;;;;;;;;;;-142.75;100.00;76225.81;5008582;28;19922;-66
2023/05/10 08:33:38;;;;;;;;;;;;;;;-142.75;100.00;76225.81;5010432;28;20104;-65
2023/05/10 08:36:04;;;;;;;;;;;;;;;-142.75;100.00;76229.75;5010690;28;19995;-63
2023/05/10 08:38:29;;;;;;;;;;;;;;;-142.75;100.00;76223.84;5010431;28;19913;-67
2023/05/10 08:40:58;;;;;;;;;;;;;;;-142.75;100.00;76225.81;5010992;28;20349;-67
2023/05/10 08:43:26;;;;;;;;;;;;;;;-142.75;100.00;76231.72;5010826;28;19918;-67
2023/05/10 08:45:53;;;;;;;;;;;;;;;-142.75;100.00;76219.91;5010794;28;19917;-66
2023/05/10 08:48:19;;;;;;;;;;;;;;;-142.75;100.00;76231.72;5011254;28;19959;-67
2023/05/10 08:50:44;;;;;;;;;;;;;;;-142.75;100.00;76229.75;5008164;28;20133;-67
2023/05/10 08:53:11;;;;;;;;;;;;;;;-142.75;100.00;76235.66;5010879;28;20382;-67
2023/05/10 08:55:38;;;;;;;;;;;;;;;-142.75;100.00;76251.41;5009333;28;19913;-67
2023/05/10 08:58:04;;;;;;;;;;;;;;;-142.75;100.00;76251.41;5010636;28;19956;-66
2023/05/10 09:00:29;;;;;;;;;;;;;;;-142.75;100.00;76271.09;5010798;28;19961;-66
2023/05/10 09:02:54;;;;;;;;;;;;;;;-142.75;100.00;76263.22;5010623;28;20534;-65
2023/05/10 09:05:20;;;;;;;;;;;;;;;-142.75;100.00;76261.25;5010416;28;20438;-66
2023/05/10 09:07:45;;;;;;;;;;;;;;;-142.75;100.00;76263.22;5010609;28;20391;-67
2023/05/10 09:10:11;;;;;;;;;;;;;;;-142.75;100.00;76263.22;5010498;28;20321;-67
2023/05/10 09:12:36;;;;;;;;;;;;;;;-142.75;100.00;76282.91;5010436;28;20302;-67
2023/05/10 09:15:01;;;;;;;;;;;;;;;-142.75;100.00;76306.53;5010134;28;19921;-67
2023/05/10 09:17:28;;;;;;;;;;;;;;;-142.75;100.00;76298.66;5010442;28;19951;-66
2023/05/10 09:19:59;;;;;;;;;;;;;;;-142.75;100.00;76284.88;5010096;28;19917;-67
2023/05/10 09:22:24;;;;;;;;;;;;;;;-142.75;100.00;76267.16;5010225;28;20403;-66
2023/05/10 09:25:03;;;;;;;;;;;;;;;-142.75;100.00;76263.22;5025325;28;19913;-67
2023/05/10 09:27:28;;;;;;;;;;;;;;;-142.75;100.00;76261.25;5010053;28;19924;-67
2023/05/10 09:29:54;;;;;;;;;;;;;;;-142.75;100.00;76265.19;5010179;28;19913;-67
2023/05/10 09:32:20;;;;;;;;;;;;;;;-142.75;100.00;76277.00;5010486;28;19917;-67
2023/05/10 09:34:45;;;;;;;;;;;;;;;-142.75;100.00;76273.06;5010055;28;20298;-67
2023/05/10 09:37:11;;;;;;;;;;;;;;;-142.75;100.00;76277.00;5009724;28;19917;-67
2023/05/10 09:39:37;;;;;;;;;;;;;;;-142.75;100.00;76271.09;5009716;28;19940;-67
2023/05/10 09:42:06;;;;;;;;;;;;;;;-142.75;100.00;76286.84;5009901;28;19921;-67
2023/05/10 09:44:35;;;;;;;;;;;;;;;-142.75;100.00;76292.75;5009616;28;19917;-67
2023/05/10 09:47:00;;;;;;;;;;;;;;;-142.75;100.00;76290.78;5009828;28;19913;-67
2023/05/10 09:49:26;;;;;;;;;;;;;;;-142.75;100.00;76278.97;5009609;28;19924;-67
2023/05/10 09:51:59;;;;;;;;;;;;;;;-142.75;100.00;76286.84;5009965;28;19928;-67
2023/05/10 09:54:24;;;;;;;;;;;;;;;-142.75;100.00;76286.84;5009193;28;19913;-66
2023/05/10 09:56:50;;;;;;;;;;;;;;;-142.75;100.00;76284.88;5009754;28;19996;-67
2023/05/10 09:59:15;;;;;;;;;;;;;;;-142.75;100.00;76277.00;5009462;28;19920;-67
2023/05/10 10:01:40;;;;;;;;;;;;;;;-142.75;100.00;76257.31;5009523;28;19921;-67
2023/05/10 10:04:07;;;;;;;;;;;;;;;-142.75;100.00;76263.22;5009535;28;19913;-67
2023/05/10 10:06:39;;;;;;;;;;;;;;;-142.75;100.00;76255.34;5009337;28;19913;-67
2023/05/10 10:09:05;;;;;;;;;;;;;;;-142.75;100.00;76255.34;5009498;28;19932;-66
2023/05/10 10:11:31;;;;;;;;;;;;;;;-142.75;100.00;76235.66;5008161;28;20608;-66
2023/05/10 10:13:56;;;;;;;;;;;;;;;-142.75;100.00;76219.91;5009174;28;19914;-67
2023/05/10 10:16:21;;;;;;;;;;;;;;;-142.75;100.00;76212.03;5008350;28;19933;-67
2023/05/10 10:18:47;;;;;;;;;;;;;;;-142.75;100.00;76219.91;5008580;28;19914;-67
2023/05/10 10:21:13;;;;;;;;;;;;;;;-142.75;100.00;76212.03;5006725;28;20501;-67
2023/05/10 10:23:38;;;;;;;;;;;;;;;-142.75;100.00;76198.28;5008056;28;19914;-67
2023/05/10 10:26:04;;;;;;;;;;;;;;;-142.75;100.00;76204.16;5007932;28;20012;-67
2023/05/10 10:28:38;;;;;;;;;;;;;;;-142.75;100.00;76217.94;5007840;28;19920;-67
2023/05/10 10:31:15;;;;;;;;;;;;;;;-142.75;100.00;76223.84;5007987;28;19964;-66
2023/05/10 10:33:43;;;;;;;;;;;;;;;-142.75;100.00;76243.53;5007920;28;19913;-67
2023/05/10 10:36:09;;;;;;;;;;;;;;;-142.75;100.00;76241.56;5007870;28;19923;-67
2023/05/10 10:38:59;;;;;;;;;;;;;;;-142.75;100.00;76259.28;5007926;28;19996;-67
2023/05/10 10:41:44;;;;;;;;;;;;;;;-142.75;100.00;76231.72;5004992;28;19913;-67
2023/05/10 10:44:21;;;;;;;;;;;;;;;-142.75;100.00;76229.75;5007842;28;19921;-67
2023/05/10 10:47:00;;;;;;;;;;;;;;;-142.75;100.00;76208.09;5007725;28;20408;-66
2023/05/10 10:49:26;;;;;;;;;;;;;;;-142.75;100.00;76217.94;5006846;28;19914;-67
2023/05/10 10:52:17;;;;;;;;;;;;;;;-142.75;100.00;76249.44;5007907;28;19921;-67
2023/05/10 10:54:52;;;;;;;;;;;;;;;-142.75;100.00;76239.59;5005982;28;19913;-67
2023/05/10 10:57:18;;;;;;;;;;;;;;;-142.75;100.00;76247.47;5022633;28;19970;-67
2023/05/10 10:59:43;;;;;;;;;;;;;;;-142.75;100.00;76231.72;5006093;28;19913;-67
2023/05/10 11:02:09;;;;;;;;;;;;;;;-142.75;100.00;76239.59;5007466;28;19929;-67
2023/05/10 11:04:46;;;;;;;;;;;;;;;-142.75;100.00;76227.78;5007279;28;19920;-67
2023/05/10 11:07:17;;;;;;;;;;;;;;;-142.75;100.00;76229.75;5007203;28;19951;-67
2023/05/10 11:09:42;;;;;;;;;;;;;;;-142.75;100.00;76215.97;5007281;28;19983;-67
2023/05/10 11:12:08;;;;;;;;;;;;;;;-142.75;100.00;76208.09;5007364;28;19921;-67
2023/05/10 11:14:34;;;;;;;;;;;;;;;-142.75;100.00;76221.88;5007120;28;19913;-67
2023/05/10 11:17:00;;;;;;;;;;;;;;;-142.75;100.00;76227.78;5007194;28;19913;-66
2023/05/10 11:19:27;;;;;;;;;;;;;;;-142.75;100.00;76247.47;4970580;28;1078247;-67
2023/05/10 11:22:04;;;;;;;;;;;;;;;-142.75;100.00;76235.66;5007280;28;19952;-66
2023/05/10 11:24:30;;;;;;;;;;;;;;;-142.75;100.00;76235.66;5007677;28;19928;-66
2023/05/10 11:26:55;;;;;;;;;;;;;;;-142.75;100.00;76241.56;5007893;28;19913;-66
2023/05/10 11:29:21;;;;;;;;;;;;;;;-142.75;100.00;76241.56;5007036;28;19917;-64
2023/05/10 11:31:47;;;;;;;;;;;;;;;-142.75;100.00;76245.50;5007429;28;19924;-66
2023/05/10 11:34:23;;;;;;;;;;;;;;;-142.75;100.00;76239.59;5002115;28;20318;-67
2023/05/10 11:36:51;;;;;;;;;;;;;;;-142.75;100.00;76241.56;4988614;28;19917;-67
2023/05/10 11:39:16;;;;;;;;;;;;;;;-142.75;100.00;76247.47;5005351;28;20381;-67
2023/05/10 11:41:41;;;;;;;;;;;;;;;-142.75;100.00;76255.34;5004318;28;19917;-66
2023/05/10 11:44:08;;;;;;;;;;;;;;;-142.75;100.00;76273.06;5004091;28;20440;-67
2023/05/10 11:46:34;;;;;;;;;;;;;;;-142.75;100.00;76284.88;5003801;28;19913;-66
2023/05/10 11:49:01;;;;;;;;;;;;;;;-142.75;100.00;76300.63;5005477;28;20509;-67
2023/05/10 11:51:26;;;;;;;;;;;;;;;-142.75;100.00;76314.41;5004694;28;20390;-66
2023/05/10 11:53:56;;;;;;;;;;;;;;;-142.75;100.00;76314.41;5005741;28;19991;-67
2023/05/10 11:56:21;;;;;;;;;;;;;;;-142.75;100.00;76334.09;4999975;28;20411;-67
2023/05/10 11:58:52;;;;;;;;;;;;;;;-142.75;100.00;76353.78;5004752;28;19913;-66
2023/05/10 12:01:17;;;;;;;;;;;;;;;-142.75;100.00;76349.81;5004667;28;19913;-66
2023/05/10 12:03:44;;;;;;;;;;;;;;;-142.75;100.00;76353.78;5004721;28;19928;-66
2023/05/10 12:06:09;;;;;;;;;;;;;;;-142.75;100.00;76371.47;4999793;28;20390;-66
2023/05/10 12:08:34;;;;;;;;;;;;;;;-142.75;100.00;76369.50;5004007;28;19960;-66
2023/05/10 12:11:07;;;;;;;;;;;;;;;-142.75;100.00;76365.56;5005808;28;19913;-67
2023/05/10 12:13:37;;;;;;;;;;;;;;;-142.75;100.00;76375.41;5005737;28;20275;-66
2023/05/10 12:16:12;;;;;;;;;;;;;;;-142.75;100.00;76365.56;5006691;28;20390;-65